createdAt,value
2023-04-01T00:00:13.473Z,8.50
2023-04-01T00:01:19.035Z,8.13
2023-04-01T00:02:22.583Z,8.57
2023-04-01T00:03:32.101Z,8.32
2023-04-01T00:04:35.052Z,8.57
2023-04-01T00:05:39.628Z,8.10
2023-04-01T00:06:43.885Z,8.77
2023-04-01T00:07:48.182Z,8.60
2023-04-01T00:08:54.560Z,8.30
2023-04-01T00:10:00.025Z,8.70
2023-04-01T00:11:07.249Z,8.50
2023-04-01T00:12:10.042Z,8.63
2023-04-01T00:13:15.992Z,8.20
2023-04-01T00:14:24.207Z,8.48
2023-04-01T00:15:28.287Z,9.67
2023-04-01T00:16:32.747Z,8.25
2023-04-01T00:17:36.151Z,9.13
2023-04-01T00:18:45.190Z,7.97
2023-04-01T00:19:47.855Z,8.40
2023-04-01T00:20:58.713Z,8.48
2023-04-01T00:22:02.613Z,9.68
2023-04-01T00:23:07.128Z,8.68
2023-04-01T00:24:10.715Z,9.13
2023-04-01T00:25:18.510Z,8.40
2023-04-01T00:26:27.667Z,7.67
2023-04-01T00:27:31.772Z,8.77
2023-04-01T00:28:37.261Z,8.77
2023-04-01T00:29:42.955Z,8.73
2023-04-01T00:30:47.005Z,9.18
2023-04-01T00:31:50.435Z,8.93
2023-04-01T00:32:55.687Z,9.20
2023-04-01T00:34:01.215Z,8.55
2023-04-01T00:35:05.418Z,9.00
2023-04-01T00:36:10.964Z,8.50
2023-04-01T00:37:15.562Z,8.20
2023-04-01T00:38:20.028Z,8.25
2023-04-01T00:39:24.291Z,8.30
2023-04-01T00:40:30.339Z,9.27
2023-04-01T00:41:34.383Z,8.68
2023-04-01T00:42:37.112Z,8.57
2023-04-01T00:43:40.905Z,8.77
2023-04-01T00:44:44.452Z,8.80
2023-04-01T00:45:49.661Z,8.80
2023-04-01T00:46:53.882Z,9.00
2023-04-01T00:48:01.234Z,9.13
2023-04-01T00:49:05.814Z,8.32
2023-04-01T00:50:11.357Z,9.00
2023-04-01T00:51:20.128Z,8.75
2023-04-01T00:52:27.092Z,9.25
2023-04-01T00:53:32.776Z,7.85
2023-04-01T00:54:37.446Z,9.27
2023-04-01T00:55:56.762Z,8.20
2023-04-01T00:57:03.223Z,8.63
2023-04-01T00:58:09.618Z,8.93
2023-04-01T00:59:17.410Z,8.40
2023-04-01T01:00:22.528Z,8.40
2023-04-01T01:01:36.525Z,9.30
2023-04-01T01:02:42.408Z,8.93
2023-04-01T01:03:48.726Z,8.45
2023-04-01T01:04:54.712Z,8.23
2023-04-01T01:06:10.029Z,8.38
2023-04-01T01:07:29.822Z,8.23
2023-04-01T01:08:47.881Z,9.55
2023-04-01T01:10:04.132Z,8.60
2023-04-01T01:11:12.880Z,8.73
2023-04-01T01:12:26.774Z,9.23
2023-04-01T01:13:49.088Z,8.68
2023-04-01T01:15:04.481Z,9.05
2023-04-01T01:16:18.651Z,8.43
2023-04-01T01:17:32.008Z,8.50
2023-04-01T01:18:40.405Z,8.57
2023-04-01T01:20:12.759Z,7.45
2023-04-01T01:21:44.398Z,8.52
2023-04-01T01:23:02.202Z,8.68
2023-04-01T01:24:32.677Z,8.20
2023-04-01T01:25:42.568Z,8.00
2023-04-01T01:27:04.714Z,8.73
2023-04-01T01:28:29.273Z,8.70
2023-04-01T01:30:01.213Z,8.27
2023-04-01T01:31:15.345Z,8.63
2023-04-01T01:32:40.641Z,8.90
2023-04-01T01:34:13.330Z,8.18
2023-04-01T01:35:25.598Z,8.73
2023-04-01T01:36:35.836Z,8.30
2023-04-01T01:37:43.217Z,8.37
2023-04-01T01:38:48.803Z,8.82
2023-04-01T01:40:00.069Z,8.77
2023-04-01T01:41:06.786Z,7.78
2023-04-01T01:42:13.370Z,8.77
2023-04-01T01:43:23.449Z,8.70
2023-04-01T01:44:30.004Z,8.60
2023-04-01T01:45:48.520Z,8.02
2023-04-01T01:47:02.227Z,9.05
2023-04-01T01:48:17.546Z,8.70
2023-04-01T01:49:31.538Z,9.10
2023-04-01T01:50:37.757Z,9.85
2023-04-01T01:51:44.389Z,8.23
2023-04-01T01:53:04.663Z,10.32
2023-04-01T01:54:08.450Z,9.02
2023-04-01T01:55:30.101Z,7.53
2023-04-01T01:56:37.697Z,8.82
2023-04-01T01:57:46.307Z,8.57
2023-04-01T01:58:54.476Z,9.15
2023-04-01T02:00:14.134Z,9.30
2023-04-01T02:01:30.826Z,8.63
2023-04-01T02:02:38.605Z,8.52
2023-04-01T02:03:44.862Z,8.93
2023-04-01T02:04:48.584Z,8.20
2023-04-01T02:05:57.854Z,8.82
2023-04-01T02:07:04.827Z,8.77
2023-04-01T02:08:22.759Z,9.05
2023-04-01T02:09:28.262Z,8.70
2023-04-01T02:10:39.941Z,8.70
2023-04-01T02:11:52.371Z,9.35
2023-04-01T02:13:07.975Z,8.67
2023-04-01T02:14:23.848Z,8.20
2023-04-01T02:15:39.000Z,8.50
2023-04-01T02:16:57.610Z,7.82
2023-04-01T02:18:08.175Z,9.15
2023-04-01T02:19:15.661Z,7.53
2023-04-01T02:20:31.284Z,8.07
2023-04-01T02:21:39.321Z,8.32
2023-04-01T02:22:48.464Z,8.93
2023-04-01T02:23:57.082Z,7.93
2023-04-01T02:25:11.966Z,8.70
2023-04-01T02:26:27.746Z,8.55
2023-04-01T02:27:40.085Z,8.88
2023-04-01T02:28:46.069Z,8.80
2023-04-01T02:29:53.735Z,9.07
2023-04-01T02:30:58.246Z,8.25
2023-04-01T02:32:02.086Z,8.93
2023-04-01T02:33:07.900Z,8.55
2023-04-01T02:34:12.456Z,8.55
2023-04-01T02:35:21.162Z,8.32
2023-04-01T02:36:25.701Z,8.00
2023-04-01T02:37:33.986Z,8.40
2023-04-01T02:38:39.232Z,8.05
2023-04-01T02:39:43.787Z,8.15
2023-04-01T02:40:51.983Z,9.45
2023-04-01T02:41:57.382Z,9.30
2023-04-01T02:43:01.355Z,9.15
2023-04-01T02:44:05.228Z,8.43
2023-04-01T02:45:11.276Z,9.20
2023-04-01T02:46:13.877Z,8.50
2023-04-01T02:47:17.696Z,8.33
2023-04-01T02:48:25.529Z,8.57
2023-04-01T02:49:29.655Z,8.65
2023-04-01T02:50:33.208Z,8.55
2023-04-01T02:51:40.059Z,9.55
2023-04-01T02:52:50.962Z,8.50
2023-04-01T02:53:56.929Z,8.65
2023-04-01T02:55:01.289Z,8.80
2023-04-01T02:56:13.720Z,8.88
2023-04-01T02:57:17.238Z,8.20
2023-04-01T02:58:23.141Z,9.00
2023-04-01T02:59:26.977Z,9.23
2023-04-01T03:00:32.408Z,8.00
2023-04-01T03:01:45.870Z,8.45
2023-04-01T03:02:51.513Z,8.77
2023-04-01T03:03:55.544Z,8.60
2023-04-01T03:05:00.714Z,7.90
2023-04-01T03:06:11.855Z,7.97
2023-04-01T03:07:19.701Z,8.85
2023-04-01T03:08:30.243Z,7.80
2023-04-01T03:09:32.794Z,8.00
2023-04-01T03:10:36.230Z,7.80
2023-04-01T03:11:42.376Z,8.40
2023-04-01T03:12:46.082Z,8.75
2023-04-01T03:13:49.905Z,8.48
2023-04-01T03:14:53.751Z,8.43
2023-04-01T03:15:57.615Z,8.75
2023-04-01T03:17:04.086Z,8.88
2023-04-01T03:18:10.376Z,9.45
2023-04-01T03:19:17.656Z,8.10
2023-04-01T03:20:26.010Z,8.97
2023-04-01T03:21:31.440Z,8.55
2023-04-01T03:22:41.426Z,8.35
2023-04-01T03:23:49.772Z,7.88
2023-04-01T03:24:52.398Z,8.45
2023-04-01T03:25:56.733Z,8.27
2023-04-01T03:27:00.002Z,8.80
2023-04-01T03:28:14.382Z,8.68
2023-04-01T03:29:17.364Z,8.90
2023-04-01T03:30:22.364Z,8.50
2023-04-01T03:31:32.091Z,7.87
2023-04-01T03:32:36.093Z,9.63
2023-04-01T03:33:41.296Z,8.32
2023-04-01T03:34:44.866Z,8.45
2023-04-01T03:35:53.329Z,8.32
2023-04-01T03:37:00.832Z,8.65
2023-04-01T03:38:08.356Z,8.85
2023-04-01T03:39:19.798Z,9.25
2023-04-01T03:40:23.690Z,9.13
2023-04-01T03:41:28.788Z,8.43
2023-04-01T03:42:33.862Z,8.83
2023-04-01T03:43:38.805Z,8.00
2023-04-01T03:44:51.455Z,8.70
2023-04-01T03:45:58.602Z,8.13
2023-04-01T03:47:01.607Z,8.52
2023-04-01T03:48:07.711Z,8.48
2023-04-01T03:49:12.805Z,8.50
2023-04-01T03:50:16.704Z,9.60
2023-04-01T03:51:20.086Z,9.10
2023-04-01T03:52:24.024Z,8.52
2023-04-01T03:53:28.127Z,9.10
2023-04-01T03:54:33.302Z,8.32
2023-04-01T03:55:38.106Z,8.27
2023-04-01T03:56:43.412Z,8.90
2023-04-01T03:57:46.106Z,8.32
2023-04-01T03:58:55.716Z,8.52
2023-04-01T03:59:58.593Z,8.65
2023-04-01T04:01:02.710Z,9.07
2023-04-01T04:02:05.351Z,8.52
2023-04-01T04:03:10.002Z,9.27
2023-04-01T04:04:14.181Z,10.23
2023-04-01T04:05:18.143Z,9.40
2023-04-01T04:06:21.201Z,9.55
2023-04-01T04:07:24.771Z,8.80
2023-04-01T04:08:35.301Z,9.23
2023-04-01T04:09:40.832Z,9.32
2023-04-01T04:10:47.573Z,8.75
2023-04-01T04:11:52.043Z,8.63
2023-04-01T04:12:58.197Z,9.00
2023-04-01T04:14:00.829Z,8.55
2023-04-01T04:15:04.649Z,9.20
2023-04-01T04:16:08.545Z,8.13
2023-04-01T04:17:17.339Z,9.35
2023-04-01T04:18:20.954Z,8.48
2023-04-01T04:19:26.029Z,8.05
2023-04-01T04:20:28.436Z,9.40
2023-04-01T04:21:32.756Z,8.68
2023-04-01T04:22:35.414Z,8.55
2023-04-01T04:23:39.334Z,8.43
2023-04-01T04:24:43.210Z,8.52
2023-04-01T04:25:56.057Z,8.77
2023-04-01T04:26:59.512Z,9.40
2023-04-01T04:28:02.073Z,8.57
2023-04-01T04:29:05.561Z,9.73
2023-04-01T04:30:10.379Z,9.63
2023-04-01T04:31:13.965Z,8.52
2023-04-01T04:32:16.331Z,8.65
2023-04-01T04:33:20.420Z,8.90
2023-04-01T04:34:23.503Z,8.90
2023-04-01T04:35:26.981Z,9.02
2023-04-01T04:36:29.339Z,8.53
2023-04-01T04:37:32.805Z,8.32
2023-04-01T04:38:35.404Z,8.70
2023-04-01T04:39:39.324Z,8.43
2023-04-01T04:40:44.115Z,9.20
2023-04-01T04:41:47.770Z,8.48
2023-04-01T04:42:50.198Z,7.88
2023-04-01T04:43:56.041Z,8.55
2023-04-01T04:44:58.628Z,8.20
2023-04-01T04:46:02.035Z,8.77
2023-04-01T04:47:04.617Z,8.43
2023-04-01T04:48:10.251Z,9.27
2023-04-01T04:49:12.726Z,9.45
2023-04-01T04:50:16.524Z,9.13
2023-04-01T04:51:20.689Z,7.88
2023-04-01T04:52:24.057Z,9.32
2023-04-01T04:53:27.307Z,9.30
2023-04-01T04:54:31.917Z,8.55
2023-04-01T04:55:34.463Z,8.98
2023-04-01T04:56:39.426Z,8.55
2023-04-01T04:57:42.698Z,10.43
2023-04-01T04:58:46.309Z,8.55
2023-04-01T04:59:48.609Z,8.38
2023-04-01T05:00:52.179Z,8.70
2023-04-01T05:01:54.631Z,8.80
2023-04-01T05:02:58.086Z,9.60
2023-04-01T05:04:00.789Z,8.50
2023-04-01T05:05:04.393Z,9.95
2023-04-01T05:06:08.355Z,9.00
2023-04-01T05:07:12.177Z,8.15
2023-04-01T05:08:14.854Z,8.00
2023-04-01T05:09:18.760Z,8.93
2023-04-01T05:10:22.005Z,9.23
2023-04-01T05:11:27.150Z,8.07
2023-04-01T05:12:31.067Z,9.10
2023-04-01T05:13:34.557Z,9.07
2023-04-01T05:14:37.246Z,9.15
2023-04-01T05:15:40.715Z,8.32
2023-04-01T05:16:43.391Z,8.52
2023-04-01T05:17:47.330Z,9.57
2023-04-01T05:18:49.748Z,8.43
2023-04-01T05:19:53.185Z,8.90
2023-04-01T05:20:56.828Z,9.48
2023-04-01T05:22:00.567Z,8.98
2023-04-01T05:23:03.272Z,9.38
2023-04-01T05:24:10.765Z,7.90
2023-04-01T05:25:13.234Z,8.63
2023-04-01T05:26:17.443Z,8.60
2023-04-01T05:27:19.851Z,8.45
2023-04-01T05:28:25.056Z,7.57
2023-04-01T05:29:28.128Z,7.63
2023-04-01T05:30:31.692Z,8.38
2023-04-01T05:31:35.008Z,8.35
2023-04-01T05:32:39.017Z,7.72
2023-04-01T05:33:41.602Z,7.75
2023-04-01T05:34:45.508Z,7.68
2023-04-01T05:35:48.390Z,8.27
2023-04-01T05:36:51.771Z,7.70
2023-04-01T05:37:54.378Z,7.82
2023-04-01T05:38:58.084Z,8.20
2023-04-01T05:40:00.710Z,7.70
2023-04-01T05:41:06.046Z,7.80
2023-04-01T05:42:09.937Z,7.72
2023-04-01T05:43:12.824Z,7.60
2023-04-01T05:44:18.573Z,7.07
2023-04-01T05:45:22.489Z,7.63
2023-04-01T05:46:27.568Z,7.10
2023-04-01T05:47:30.141Z,7.10
2023-04-01T05:48:36.038Z,7.38
2023-04-01T05:49:38.742Z,8.75
2023-04-01T05:50:44.150Z,7.33
2023-04-01T05:51:47.385Z,6.72
2023-04-01T05:52:51.374Z,7.55
2023-04-01T05:53:54.267Z,7.63
2023-04-01T05:54:58.262Z,6.93
2023-04-01T05:56:04.908Z,8.10
2023-04-01T05:57:08.663Z,7.60
2023-04-01T05:58:11.809Z,7.70
2023-04-01T05:59:15.612Z,7.50
2023-04-01T06:00:21.084Z,7.07
2023-04-01T06:01:24.853Z,7.73
2023-04-01T06:02:27.384Z,7.28
2023-04-01T06:03:31.061Z,7.10
2023-04-01T06:04:38.914Z,7.38
2023-04-01T06:05:44.433Z,7.05
2023-04-01T06:06:47.186Z,6.55
2023-04-01T06:07:51.026Z,7.32
2023-04-01T06:08:54.020Z,6.53
2023-04-01T06:09:57.579Z,7.85
2023-04-01T06:11:14.831Z,7.32
2023-04-01T06:12:51.092Z,6.57
2023-04-01T06:14:14.574Z,6.53
2023-04-01T06:15:37.034Z,7.03
2023-04-01T06:16:53.370Z,7.55
2023-04-01T06:18:29.214Z,6.68
2023-04-01T06:19:42.966Z,6.68
2023-04-01T06:20:55.763Z,6.47
2023-04-01T06:22:31.953Z,7.97
2023-04-01T06:23:55.642Z,7.05
2023-04-01T06:25:33.114Z,6.80
2023-04-01T06:26:40.854Z,6.90
2023-04-01T06:28:02.462Z,6.60
2023-04-01T06:29:39.767Z,7.30
2023-04-01T06:30:47.954Z,6.20
2023-04-01T06:32:24.413Z,6.63
2023-04-01T06:33:36.799Z,6.40
2023-04-01T06:35:04.478Z,6.35
2023-04-01T06:36:26.363Z,7.18
2023-04-01T06:37:53.190Z,6.80
2023-04-01T06:39:12.531Z,6.93
2023-04-01T06:40:38.189Z,7.97
2023-04-01T06:41:59.223Z,7.50
2023-04-01T06:43:14.746Z,6.50
2023-04-01T06:44:26.732Z,6.88
2023-04-01T06:45:38.347Z,6.95
2023-04-01T06:46:48.419Z,6.85
2023-04-01T06:48:16.880Z,7.75
2023-04-01T06:49:34.512Z,8.00
2023-04-01T06:50:57.291Z,6.93
2023-04-01T06:52:12.145Z,7.10
2023-04-01T06:53:19.520Z,7.33
2023-04-01T06:54:28.402Z,7.25
2023-04-01T06:55:39.008Z,7.13
2023-04-01T06:56:47.644Z,7.20
2023-04-01T06:57:54.157Z,7.40
2023-04-01T06:59:03.511Z,7.35
2023-04-01T07:00:13.722Z,7.93
2023-04-01T07:01:23.275Z,7.50
2023-04-01T07:02:34.927Z,6.93
2023-04-01T07:03:42.846Z,7.35
2023-04-01T07:04:51.205Z,7.43
2023-04-01T07:05:55.460Z,6.68
2023-04-01T07:07:02.365Z,7.60
2023-04-01T07:08:07.657Z,7.93
2023-04-01T07:09:17.415Z,7.38
2023-04-01T07:10:24.694Z,7.13
2023-04-01T07:11:32.357Z,7.43
2023-04-01T07:12:43.473Z,7.55
2023-04-01T07:13:53.656Z,8.05
2023-04-01T07:14:58.757Z,7.47
2023-04-01T07:16:13.320Z,7.20
2023-04-01T07:17:18.874Z,7.82
2023-04-01T07:18:31.030Z,7.95
2023-04-01T07:19:39.962Z,8.25
2023-04-01T07:20:42.492Z,8.25
2023-04-01T07:21:50.546Z,7.93
2023-04-01T07:22:56.187Z,8.00
2023-04-01T07:24:06.739Z,8.20
2023-04-01T07:25:15.145Z,7.82
2023-04-01T07:26:21.908Z,7.63
2023-04-01T07:27:26.108Z,6.97
2023-04-01T07:28:33.085Z,7.07
2023-04-01T07:29:36.934Z,7.50
2023-04-01T07:30:51.951Z,8.25
2023-04-01T07:32:15.373Z,7.97
2023-04-01T07:33:38.836Z,8.13
2023-04-01T07:34:51.849Z,7.75
2023-04-01T07:36:00.195Z,8.07
2023-04-01T07:37:12.352Z,7.80
2023-04-01T07:38:29.324Z,7.63
2023-04-01T07:39:42.494Z,7.60
2023-04-01T07:40:53.668Z,7.40
2023-04-01T07:42:04.061Z,8.25
2023-04-01T07:43:32.882Z,8.27
2023-04-01T07:44:47.176Z,7.80
2023-04-01T07:45:58.182Z,7.70
2023-04-01T07:47:23.585Z,7.50
2023-04-01T07:48:35.079Z,6.97
2023-04-01T07:49:49.001Z,8.18
2023-04-01T07:51:02.874Z,7.35
2023-04-01T07:52:12.475Z,7.80
2023-04-01T07:53:25.582Z,7.10
2023-04-01T07:54:41.637Z,8.68
2023-04-01T07:55:50.285Z,7.40
2023-04-01T07:57:04.172Z,8.25
2023-04-01T07:58:16.554Z,8.00
2023-04-01T07:59:29.104Z,8.80
2023-04-01T08:00:40.636Z,8.30
2023-04-01T08:01:52.979Z,8.30
2023-04-01T08:03:19.470Z,8.07
2023-04-01T08:04:39.507Z,7.77
2023-04-01T08:05:49.277Z,7.68
2023-04-01T08:07:00.603Z,7.18
2023-04-01T08:08:15.344Z,7.75
2023-04-01T08:09:25.596Z,7.68
2023-04-01T08:10:38.054Z,8.13
2023-04-01T08:12:00.301Z,7.80
2023-04-01T08:13:15.844Z,8.38
2023-04-01T08:14:26.283Z,8.55
2023-04-01T08:15:36.375Z,8.32
2023-04-01T08:16:47.100Z,8.67
2023-04-01T08:18:04.149Z,7.25
2023-04-01T08:19:18.405Z,8.55
2023-04-01T08:20:32.954Z,8.23
2023-04-01T08:21:45.118Z,7.43
2023-04-01T08:22:53.087Z,7.88
2023-04-01T08:23:59.740Z,8.60
2023-04-01T08:25:07.827Z,8.30
2023-04-01T08:26:17.698Z,8.43
2023-04-01T08:27:26.783Z,8.30
2023-04-01T08:28:34.868Z,8.47
2023-04-01T08:29:45.443Z,7.90
2023-04-01T08:30:54.823Z,8.77
2023-04-01T08:32:02.123Z,9.30
2023-04-01T08:33:13.024Z,9.75
2023-04-01T08:34:20.831Z,8.45
2023-04-01T08:35:35.544Z,8.77
2023-04-01T08:36:45.904Z,9.32
2023-04-01T08:37:49.837Z,8.88
2023-04-01T08:38:57.096Z,7.97
2023-04-01T08:40:04.382Z,8.03
2023-04-01T08:41:39.560Z,8.65
2023-04-01T08:42:58.025Z,8.20
2023-04-01T08:44:21.692Z,8.48
2023-04-01T08:45:47.644Z,8.63
2023-04-01T08:47:10.821Z,7.88
2023-04-01T08:48:30.442Z,7.68
2023-04-01T08:50:04.094Z,7.82
2023-04-01T08:51:23.100Z,7.88
2023-04-01T08:52:36.368Z,8.02
2023-04-01T08:54:14.368Z,7.57
2023-04-01T08:55:54.515Z,8.23
2023-04-01T08:57:01.868Z,8.63
2023-04-01T08:58:40.965Z,9.30
2023-04-01T08:59:59.849Z,8.18
2023-04-01T09:01:16.223Z,8.57
2023-04-01T09:02:49.662Z,8.95
2023-04-01T09:04:16.219Z,7.88
2023-04-01T09:06:01.018Z,8.23
2023-04-01T09:07:21.362Z,8.18
2023-04-01T09:08:41.505Z,7.80
2023-04-01T09:10:33.064Z,8.52
2023-04-01T09:11:58.136Z,9.00
2023-04-01T09:13:29.549Z,8.57
2023-04-01T09:15:02.010Z,8.05
2023-04-01T09:16:30.153Z,7.80
2023-04-01T09:17:53.654Z,7.68
2023-04-01T09:19:24.018Z,7.65
2023-04-01T09:20:49.997Z,8.65
2023-04-01T09:22:25.066Z,7.55
2023-04-01T09:24:08.749Z,8.37
2023-04-01T09:25:49.228Z,8.05
2023-04-01T09:27:07.696Z,7.43
2023-04-01T09:28:16.931Z,7.53
2023-04-01T09:29:34.840Z,7.40
2023-04-01T09:31:12.259Z,7.43
2023-04-01T09:32:55.667Z,7.68
2023-04-01T09:34:25.617Z,7.22
2023-04-01T09:35:42.333Z,7.85
2023-04-01T09:36:52.697Z,6.95
2023-04-01T09:38:14.621Z,7.57
2023-04-01T09:39:37.944Z,8.32
2023-04-01T09:40:51.359Z,7.60
2023-04-01T09:42:07.441Z,8.13
2023-04-01T09:43:42.333Z,7.18
2023-04-01T09:44:54.080Z,7.32
2023-04-01T09:46:21.814Z,7.72
2023-04-01T09:47:43.824Z,8.20
2023-04-01T09:49:26.125Z,8.40
2023-04-01T09:50:42.573Z,8.18
2023-04-01T09:51:56.954Z,8.37
2023-04-01T09:53:13.075Z,8.40
2023-04-01T09:54:30.076Z,8.73
2023-04-01T09:56:04.681Z,8.23
2023-04-01T09:57:31.448Z,8.13
2023-04-01T09:59:12.879Z,8.27
2023-04-01T10:00:52.291Z,8.77
2023-04-01T10:02:17.808Z,8.25
2023-04-01T10:03:57.851Z,8.23
2023-04-01T10:05:57.375Z,7.03
2023-04-01T10:07:42.607Z,8.30
2023-04-01T10:09:22.051Z,7.40
2023-04-01T10:11:02.112Z,8.50
2023-04-01T10:12:34.022Z,7.80
2023-04-01T10:14:12.808Z,7.82
2023-04-01T10:15:52.937Z,8.43
2023-04-01T10:17:40.045Z,7.72
2023-04-01T10:19:15.720Z,8.75
2023-04-01T10:20:54.034Z,9.65
2023-04-01T10:22:36.375Z,8.10
2023-04-01T10:24:12.480Z,8.00
2023-04-01T10:25:41.350Z,7.63
2023-04-01T10:27:09.511Z,8.52
2023-04-01T10:28:51.853Z,8.20
2023-04-01T10:30:17.672Z,8.23
2023-04-01T10:31:52.451Z,8.60
2023-04-01T10:33:32.918Z,7.90
2023-04-01T10:35:21.014Z,8.05
2023-04-01T10:36:53.759Z,7.45
2023-04-01T10:38:42.084Z,8.30
2023-04-01T10:40:34.073Z,7.47
2023-04-01T10:42:23.137Z,7.03
2023-04-01T10:43:57.422Z,8.00
2023-04-01T10:45:50.773Z,6.93
2023-04-01T10:47:27.879Z,7.75
2023-04-01T10:49:05.435Z,7.63
2023-04-01T10:50:50.871Z,7.47
2023-04-01T10:52:31.778Z,7.55
2023-04-01T10:53:48.510Z,8.10
2023-04-01T10:55:07.066Z,7.18
2023-04-01T10:56:41.449Z,7.13
2023-04-01T10:58:11.847Z,8.15
2023-04-01T11:00:00.169Z,7.90
2023-04-01T11:01:54.934Z,7.60
2023-04-01T11:03:38.619Z,7.38
2023-04-01T11:05:21.124Z,8.25
2023-04-01T11:07:11.590Z,8.43
2023-04-01T11:08:56.412Z,8.15
2023-04-01T11:10:33.084Z,8.00
2023-04-01T11:11:57.049Z,7.00
2023-04-01T11:13:39.799Z,7.83
2023-04-01T11:15:02.957Z,8.25
2023-04-01T11:16:41.969Z,8.02
2023-04-01T11:18:36.491Z,8.27
2023-04-01T11:20:16.475Z,7.40
2023-04-01T11:21:58.635Z,8.30
2023-04-01T11:23:21.139Z,8.40
2023-04-01T11:24:43.649Z,7.68
2023-04-01T11:26:08.215Z,8.60
2023-04-01T11:27:27.762Z,8.52
2023-04-01T11:29:04.280Z,8.97
2023-04-01T11:30:20.313Z,8.30
2023-04-01T11:31:37.690Z,8.88
2023-04-01T11:32:55.363Z,8.70
2023-04-01T11:34:09.352Z,8.27
2023-04-01T11:35:36.141Z,7.60
2023-04-01T11:36:55.734Z,8.07
2023-04-01T11:38:08.808Z,8.55
2023-04-01T11:39:26.840Z,7.97
2023-04-01T11:40:36.912Z,8.52
2023-04-01T11:41:48.497Z,8.07
2023-04-01T11:42:57.668Z,8.70
2023-04-01T11:44:18.465Z,8.70
2023-04-01T11:45:36.412Z,7.53
2023-04-01T11:46:52.186Z,7.72
2023-04-01T11:48:17.038Z,7.80
2023-04-01T11:49:39.110Z,8.20
2023-04-01T11:51:00.242Z,7.78
2023-04-01T11:52:24.045Z,7.90
2023-04-01T11:53:39.020Z,7.53
2023-04-01T11:54:59.995Z,8.20
2023-04-01T11:56:17.245Z,8.18
2023-04-01T11:57:41.269Z,10.18
2023-04-01T11:59:13.957Z,9.57
2023-04-01T12:00:31.508Z,8.05
2023-04-01T12:01:54.410Z,9.32
2023-04-01T12:03:16.353Z,8.93
2023-04-01T12:04:55.867Z,8.85
2023-04-01T12:06:07.756Z,7.88
2023-04-01T12:07:21.050Z,8.05
2023-04-01T12:08:37.677Z,8.93
2023-04-01T12:09:52.684Z,8.20
2023-04-01T12:11:03.607Z,8.75
2023-04-01T12:12:20.501Z,7.75
2023-04-01T12:13:35.098Z,9.13
2023-04-01T12:14:46.216Z,7.90
2023-04-01T12:16:06.925Z,8.13
2023-04-01T12:17:30.090Z,8.23
2023-04-01T12:18:41.539Z,7.88
2023-04-01T12:19:54.950Z,7.93
2023-04-01T12:21:02.876Z,8.43
2023-04-01T12:22:39.768Z,8.13
2023-04-01T12:24:00.818Z,8.02
2023-04-01T12:25:24.341Z,8.27
2023-04-01T12:26:55.445Z,8.18
2023-04-01T12:28:17.990Z,7.63
2023-04-01T12:29:46.100Z,8.40
2023-04-01T12:31:01.786Z,7.90
2023-04-01T12:32:17.306Z,8.10
2023-04-01T12:33:47.071Z,7.75
2023-04-01T12:35:05.000Z,7.80
2023-04-01T12:36:21.585Z,7.57
2023-04-01T12:37:34.852Z,7.25
2023-04-01T12:38:46.833Z,7.35
2023-04-01T12:40:19.906Z,7.30
2023-04-01T12:41:32.528Z,6.90
2023-04-01T12:42:54.360Z,7.15
2023-04-01T12:44:12.318Z,7.78
2023-04-01T12:45:37.303Z,7.38
2023-04-01T12:47:08.899Z,6.70
2023-04-01T12:48:39.910Z,6.83
2023-04-01T12:50:08.431Z,6.80
2023-04-01T12:51:32.200Z,6.85
2023-04-01T12:52:49.867Z,7.15
2023-04-01T12:54:36.606Z,7.18
2023-04-01T12:55:44.190Z,6.55
2023-04-01T12:57:01.564Z,6.65
2023-04-01T12:58:43.528Z,7.35
2023-04-01T13:00:17.447Z,7.63
2023-04-01T13:02:00.363Z,6.28
2023-04-01T13:03:29.993Z,6.17
2023-04-01T13:05:03.898Z,6.63
2023-04-01T13:06:32.212Z,6.80
2023-04-01T13:07:55.465Z,6.88
2023-04-01T13:09:08.027Z,6.43
2023-04-01T13:10:22.468Z,7.07
2023-04-01T13:11:38.768Z,6.82
2023-04-01T13:13:01.823Z,6.38
2023-04-01T13:14:40.165Z,6.35
2023-04-01T13:15:47.774Z,6.45
2023-04-01T13:16:59.337Z,6.53
2023-04-01T13:18:17.234Z,6.88
2023-04-01T13:19:28.321Z,6.20
2023-04-01T13:20:48.927Z,5.97
2023-04-01T13:22:00.137Z,6.28
2023-04-01T13:23:11.501Z,5.93
2023-04-01T13:24:27.153Z,5.53
2023-04-01T13:25:40.906Z,5.78
2023-04-01T13:26:56.506Z,5.88
2023-04-01T13:28:06.046Z,5.47
2023-04-01T13:29:16.210Z,5.50
2023-04-01T13:30:27.610Z,5.18
2023-04-01T13:31:52.149Z,5.25
2023-04-01T13:33:03.034Z,6.05
2023-04-01T13:34:25.338Z,5.00
2023-04-01T13:35:39.327Z,5.40
2023-04-01T13:36:54.329Z,5.32
2023-04-01T13:38:10.953Z,6.15
2023-04-01T13:39:37.762Z,5.80
2023-04-01T13:41:03.039Z,5.78
2023-04-01T13:42:16.345Z,5.47
2023-04-01T13:43:24.800Z,5.43
2023-04-01T13:44:37.294Z,5.18
2023-04-01T13:45:51.501Z,5.90
2023-04-01T13:47:30.899Z,5.50
2023-04-01T13:49:12.689Z,5.43
2023-04-01T13:50:38.210Z,5.30
2023-04-01T13:52:01.812Z,5.13
2023-04-01T13:53:34.411Z,4.88
2023-04-01T13:55:01.711Z,6.05
2023-04-01T13:56:26.909Z,6.10
2023-04-01T13:57:44.822Z,6.30
2023-04-01T13:59:12.668Z,5.53
2023-04-01T14:00:41.150Z,5.00
2023-04-01T14:01:52.575Z,5.20
2023-04-01T14:03:43.978Z,4.93
2023-04-01T14:05:00.899Z,5.43
2023-04-01T14:06:30.849Z,5.00
2023-04-01T14:07:51.492Z,5.88
2023-04-01T14:09:18.238Z,5.18
2023-04-01T14:10:28.950Z,5.10
2023-04-01T14:11:38.307Z,4.80
2023-04-01T14:12:50.403Z,4.85
2023-04-01T14:14:03.655Z,4.95
2023-04-01T14:15:26.464Z,5.30
2023-04-01T14:16:55.400Z,5.10
2023-04-01T14:18:26.536Z,5.90
2023-04-01T14:19:51.985Z,5.45
2023-04-01T14:21:07.646Z,5.35
2023-04-01T14:22:24.656Z,5.18
2023-04-01T14:23:50.667Z,4.67
2023-04-01T14:25:26.290Z,5.32
2023-04-01T14:26:56.114Z,5.55
2023-04-01T14:28:10.466Z,5.68
2023-04-01T14:29:27.335Z,5.25
2023-04-01T14:30:53.692Z,5.15
2023-04-01T14:32:09.213Z,5.07
2023-04-01T14:33:22.437Z,6.25
2023-04-01T14:34:41.217Z,6.45
2023-04-01T14:35:51.710Z,7.72
2023-04-01T14:37:13.798Z,7.70
2023-04-01T14:38:29.858Z,7.47
2023-04-01T14:39:52.390Z,7.47
2023-04-01T14:41:01.296Z,8.20
2023-04-01T14:42:24.694Z,7.50
2023-04-01T14:43:47.628Z,8.27
2023-04-01T14:45:11.971Z,9.80
2023-04-01T14:46:46.501Z,8.93
2023-04-01T14:47:55.165Z,7.80
2023-04-01T14:49:02.065Z,8.20
2023-04-01T14:50:11.905Z,8.00
2023-04-01T14:51:21.486Z,8.27
2023-04-01T14:52:29.848Z,8.63
2023-04-01T14:53:39.850Z,8.77
2023-04-01T14:54:45.209Z,8.77
2023-04-01T14:55:52.853Z,8.30
2023-04-01T14:57:13.693Z,8.48
2023-04-01T14:58:19.377Z,8.02
2023-04-01T14:59:30.133Z,7.72
2023-04-01T15:00:48.645Z,7.90
2023-04-01T15:02:00.935Z,7.67
2023-04-01T15:03:14.400Z,7.13
2023-04-01T15:04:44.601Z,7.50
2023-04-01T15:05:51.746Z,7.38
2023-04-01T15:07:12.024Z,6.78
2023-04-01T15:08:23.353Z,6.95
2023-04-01T15:09:40.031Z,6.75
2023-04-01T15:11:10.878Z,7.32
2023-04-01T15:12:22.659Z,7.15
2023-04-01T15:13:52.145Z,6.70
2023-04-01T15:15:14.338Z,6.37
2023-04-01T15:16:25.260Z,6.28
2023-04-01T15:17:49.774Z,6.57
2023-04-01T15:19:03.395Z,6.32
2023-04-01T15:20:38.379Z,6.20
2023-04-01T15:21:52.878Z,6.25
2023-04-01T15:23:24.020Z,6.05
2023-04-01T15:24:40.517Z,6.47
2023-04-01T15:26:11.125Z,6.07
2023-04-01T15:27:26.515Z,6.18
2023-04-01T15:28:37.455Z,6.40
2023-04-01T15:30:11.720Z,5.60
2023-04-01T15:31:19.052Z,5.60
2023-04-01T15:32:30.211Z,5.30
2023-04-01T15:33:50.446Z,5.40
2023-04-01T15:35:02.144Z,5.03
2023-04-01T15:36:18.076Z,5.82
2023-04-01T15:37:29.845Z,5.28
2023-04-01T15:38:44.131Z,6.35
2023-04-01T15:39:59.801Z,5.82
2023-04-01T15:41:12.006Z,5.80
2023-04-01T15:42:39.053Z,6.03
2023-04-01T15:43:44.908Z,5.93
2023-04-01T15:45:01.254Z,6.95
2023-04-01T15:46:22.918Z,6.57
2023-04-01T15:47:39.199Z,6.30
2023-04-01T15:49:00.892Z,6.30
2023-04-01T15:50:29.095Z,5.90
2023-04-01T15:51:49.526Z,6.18
2023-04-01T15:53:02.213Z,6.20
2023-04-01T15:54:28.287Z,5.90
2023-04-01T15:55:37.983Z,5.55
2023-04-01T15:57:02.198Z,6.03
2023-04-01T15:58:34.700Z,6.05
2023-04-01T16:00:03.113Z,6.28
2023-04-01T16:01:16.161Z,6.85
2023-04-01T16:02:26.071Z,6.90
2023-04-01T16:03:40.427Z,6.63
2023-04-01T16:04:57.059Z,6.55
2023-04-01T16:06:25.915Z,7.10
2023-04-01T16:08:00.327Z,6.43
2023-04-01T16:09:32.875Z,6.70
2023-04-01T16:11:06.250Z,6.95
2023-04-01T16:12:18.313Z,7.72
2023-04-01T16:13:35.340Z,6.32
2023-04-01T16:14:50.903Z,6.70
2023-04-01T16:16:08.019Z,7.47
2023-04-01T16:17:28.736Z,6.63
2023-04-01T16:19:08.719Z,6.93
2023-04-01T16:20:22.400Z,6.10
2023-04-01T16:21:37.666Z,7.57
2023-04-01T16:22:47.654Z,7.40
2023-04-01T16:23:54.573Z,7.32
2023-04-01T16:25:21.769Z,7.18
2023-04-01T16:26:30.701Z,7.18
2023-04-01T16:27:43.001Z,6.40
2023-04-01T16:28:56.351Z,7.25
2023-04-01T16:30:04.793Z,5.93
2023-04-01T16:31:15.862Z,5.93
2023-04-01T16:32:33.859Z,5.93
2023-04-01T16:33:46.940Z,5.67
2023-04-01T16:35:03.168Z,5.75
2023-04-01T16:36:15.285Z,6.00
2023-04-01T16:37:23.288Z,6.10
2023-04-01T16:38:34.468Z,5.57